sensor_id;sensor_type;location;lat;lon;timestamp;pressure;altitude;pressure_sealevel;temperature;humidity
67109;BME280;54027;50.786;7.058;2023-03-20T00:01:51;101455.66;;;9.90;86.86
67109;BME280;54027;50.786;7.058;2023-03-20T00:04:16;101459.06;;;9.89;87.44
67109;BME280;54027;50.786;7.058;2023-03-20T00:06:42;101457.34;;;9.88;86.45
67109;BME280;54027;50.786;7.058;2023-03-20T00:09:07;101469.41;;;9.89;86.78
67109;BME280;54027;50.786;7.058;2023-03-20T00:11:42;101464.25;;;9.89;86.34
67109;BME280;54027;50.786;7.058;2023-03-20T00:14:12;101469.41;;;9.88;86.73
67109;BME280;54027;50.786;7.058;2023-03-20T00:16:41;101467.69;;;9.90;86.04
67109;BME280;54027;50.786;7.058;2023-03-20T00:19:14;101476.28;;;9.92;86.75
67109;BME280;54027;50.786;7.058;2023-03-20T00:21:40;101477.16;;;9.89;86.71
67109;BME280;54027;50.786;7.058;2023-03-20T00:24:06;101484.03;;;9.89;87.05
67109;BME280;54027;50.786;7.058;2023-03-20T00:26:33;101479.72;;;9.89;86.78
67109;BME280;54027;50.786;7.058;2023-03-20T00:29:00;101480.59;;;9.90;86.83
67109;BME280;54027;50.786;7.058;2023-03-20T00:31:29;101484.06;;;9.90;86.75
67109;BME280;54027;50.786;7.058;2023-03-20T00:33:57;101488.34;;;9.90;86.82
67109;BME280;54027;50.786;7.058;2023-03-20T00:36:24;101487.50;;;9.91;87.21
67109;BME280;54027;50.786;7.058;2023-03-20T00:38:50;101493.50;;;9.90;86.26
67109;BME280;54027;50.786;7.058;2023-03-20T00:43:53;101490.09;;;9.91;86.37
67109;BME280;54027;50.786;7.058;2023-03-20T00:46:19;101502.09;;;9.89;86.05
67109;BME280;54027;50.786;7.058;2023-03-20T00:48:45;101499.53;;;9.90;85.94
67109;BME280;54027;50.786;7.058;2023-03-20T00:51:11;101498.69;;;9.90;86.02
67109;BME280;54027;50.786;7.058;2023-03-20T00:53:37;101508.13;;;9.89;86.21
67109;BME280;54027;50.786;7.058;2023-03-20T00:56:03;101505.53;;;9.86;85.92
67109;BME280;54027;50.786;7.058;2023-03-20T00:58:28;101509.81;;;9.86;85.92
67109;BME280;54027;50.786;7.058;2023-03-20T01:00:54;101498.63;;;9.84;86.60
67109;BME280;54027;50.786;7.058;2023-03-20T01:03:22;101508.09;;;9.83;85.87
67109;BME280;54027;50.786;7.058;2023-03-20T01:05:49;101503.78;;;9.81;84.79
67109;BME280;54027;50.786;7.058;2023-03-20T01:08:23;101515.81;;;9.80;84.87
67109;BME280;54027;50.786;7.058;2023-03-20T01:10:52;101511.53;;;9.79;84.03
67109;BME280;54027;50.786;7.058;2023-03-20T01:13:26;101521.00;;;9.79;84.30
67109;BME280;54027;50.786;7.058;2023-03-20T01:15:54;101521.00;;;9.79;83.42
67109;BME280;54027;50.786;7.058;2023-03-20T01:18:21;101515.81;;;9.77;83.75
67109;BME280;54027;50.786;7.058;2023-03-20T01:20:48;101518.38;;;9.77;83.58
67109;BME280;54027;50.786;7.058;2023-03-20T01:23:14;101509.75;;;9.77;83.64
67109;BME280;54027;50.786;7.058;2023-03-20T01:25:40;101519.25;;;9.76;83.95
67109;BME280;54027;50.786;7.058;2023-03-20T01:28:22;101508.94;;;9.76;83.19
67109;BME280;54027;50.786;7.058;2023-03-20T01:30:48;101514.91;;;9.74;84.30
67109;BME280;54027;50.786;7.058;2023-03-20T01:33:19;101522.66;;;9.74;83.54
67109;BME280;54027;50.786;7.058;2023-03-20T01:35:46;101519.22;;;9.73;84.12
67109;BME280;54027;50.786;7.058;2023-03-20T01:38:17;101523.53;;;9.73;84.43
67109;BME280;54027;50.786;7.058;2023-03-20T01:43:15;101512.31;;;9.71;84.69
67109;BME280;54027;50.786;7.058;2023-03-20T01:45:51;101505.44;;;9.71;85.59
67109;BME280;54027;50.786;7.058;2023-03-20T01:48:19;101504.56;;;9.69;84.82
67109;BME280;54027;50.786;7.058;2023-03-20T01:50:46;101501.13;;;9.67;84.89
67109;BME280;54027;50.786;7.058;2023-03-20T01:53:19;101501.97;;;9.69;85.31
67109;BME280;54027;50.786;7.058;2023-03-20T01:55:47;101498.53;;;9.67;85.52
67109;BME280;54027;50.786;7.058;2023-03-20T01:58:23;101496.81;;;9.66;86.27
67109;BME280;54027;50.786;7.058;2023-03-20T02:00:50;101495.06;;;9.65;86.30
67109;BME280;54027;50.786;7.058;2023-03-20T02:03:16;101490.78;;;9.64;86.23
67109;BME280;54027;50.786;7.058;2023-03-20T02:05:43;101485.59;;;9.64;85.65
67109;BME280;54027;50.786;7.058;2023-03-20T02:08:21;101480.44;;;9.64;85.97
67109;BME280;54027;50.786;7.058;2023-03-20T02:10:49;101478.69;;;9.64;85.88
67109;BME280;54027;50.786;7.058;2023-03-20T02:13:15;101484.75;;;9.63;85.38
67109;BME280;54027;50.786;7.058;2023-03-20T02:16:09;101495.03;;;9.62;85.79
67109;BME280;54027;50.786;7.058;2023-03-20T02:18:36;101500.19;;;9.59;85.66
67109;BME280;54027;50.786;7.058;2023-03-20T02:40:19;101501.78;;;9.48;85.56
67109;BME280;54027;50.786;7.058;2023-03-20T02:43:14;101506.09;;;9.47;85.52
67109;BME280;54027;50.786;7.058;2023-03-20T02:51:30;101487.06;;;9.35;85.50
67109;BME280;54027;50.786;7.058;2023-03-20T02:54:05;101492.16;;;9.27;85.10
67109;BME280;54027;50.786;7.058;2023-03-20T02:56:45;101495.56;;;9.22;85.36
67109;BME280;54027;50.786;7.058;2023-03-20T02:59:32;101506.72;;;9.19;85.75
67109;BME280;54027;50.786;7.058;2023-03-20T03:02:08;101484.31;;;9.15;85.00
67109;BME280;54027;50.786;7.058;2023-03-20T03:04:53;101471.34;;;9.06;85.66
67109;BME280;54027;50.786;7.058;2023-03-20T03:07:22;101466.97;;;8.96;85.50
67109;BME280;54027;50.786;7.058;2023-03-20T03:09:55;101479.72;;;8.84;85.95
67109;BME280;54027;50.786;7.058;2023-03-20T03:12:25;101498.56;;;8.75;87.01
67109;BME280;54027;50.786;7.058;2023-03-20T03:14:56;101497.66;;;8.73;87.52
67109;BME280;54027;50.786;7.058;2023-03-20T03:17:26;101498.56;;;8.77;88.09
67109;BME280;54027;50.786;7.058;2023-03-20T03:19:57;101500.34;;;8.84;87.45
67109;BME280;54027;50.786;7.058;2023-03-20T03:22:25;101503.84;;;8.89;87.73
67109;BME280;54027;50.786;7.058;2023-03-20T03:24:52;101503.88;;;8.93;87.22
67109;BME280;54027;50.786;7.058;2023-03-20T03:29:53;101499.69;;;9.01;87.38
67109;BME280;54027;50.786;7.058;2023-03-20T03:34:58;101494.53;;;9.04;86.19
67109;BME280;54027;50.786;7.058;2023-03-20T03:37:49;101503.16;;;9.06;86.35
67109;BME280;54027;50.786;7.058;2023-03-20T03:43:06;101508.34;;;9.09;85.17
67109;BME280;54027;50.786;7.058;2023-03-20T03:45:43;101506.66;;;9.13;84.82
67109;BME280;54027;50.786;7.058;2023-03-20T03:48:16;101501.50;;;9.14;85.60
67109;BME280;54027;50.786;7.058;2023-03-20T03:53:19;101472.25;;;9.12;85.99
67109;BME280;54027;50.786;7.058;2023-03-20T03:55:49;101479.94;;;9.05;85.83
67109;BME280;54027;50.786;7.058;2023-03-20T03:58:27;101487.56;;;8.94;87.05
67109;BME280;54027;50.786;7.058;2023-03-20T04:00:54;101486.63;;;8.88;87.13
67109;BME280;54027;50.786;7.058;2023-03-20T04:03:25;101497.75;;;8.82;87.69
67109;BME280;54027;50.786;7.058;2023-03-20T04:05:53;101502.88;;;8.79;88.37
67109;BME280;54027;50.786;7.058;2023-03-20T04:08:20;101502.00;;;8.79;88.59
67109;BME280;54027;50.786;7.058;2023-03-20T04:10:45;101503.75;;;8.80;88.94
67109;BME280;54027;50.786;7.058;2023-03-20T04:13:10;101502.88;;;8.79;89.22
67109;BME280;54027;50.786;7.058;2023-03-20T04:15:36;101509.75;;;8.80;89.66
67109;BME280;54027;50.786;7.058;2023-03-20T04:18:03;101525.22;;;8.82;89.08
67109;BME280;54027;50.786;7.058;2023-03-20T04:20:28;101528.72;;;8.84;89.13
67109;BME280;54027;50.786;7.058;2023-03-20T04:22:54;101528.75;;;8.88;89.00
67109;BME280;54027;50.786;7.058;2023-03-20T04:25:22;101518.44;;;8.88;89.23
67109;BME280;54027;50.786;7.058;2023-03-20T04:27:48;101515.88;;;8.90;88.92
67109;BME280;54027;50.786;7.058;2023-03-20T04:30:15;101521.03;;;8.90;89.27
67109;BME280;54027;50.786;7.058;2023-03-20T04:32:40;101521.88;;;8.90;89.14
67109;BME280;54027;50.786;7.058;2023-03-20T04:35:06;101519.28;;;8.87;88.94
67109;BME280;54027;50.786;7.058;2023-03-20T04:37:32;101514.94;;;8.85;88.00
67109;BME280;54027;50.786;7.058;2023-03-20T04:39:57;101515.78;;;8.81;88.11
67109;BME280;54027;50.786;7.058;2023-03-20T04:42:22;101515.72;;;8.76;87.90
67109;BME280;54027;50.786;7.058;2023-03-20T04:44:48;101517.38;;;8.70;88.49
67109;BME280;54027;50.786;7.058;2023-03-20T04:47:13;101517.28;;;8.64;88.71
67109;BME280;54027;50.786;7.058;2023-03-20T04:49:38;101518.97;;;8.58;89.21
67109;BME280;54027;50.786;7.058;2023-03-20T04:52:04;101521.47;;;8.52;89.35
67109;BME280;54027;50.786;7.058;2023-03-20T04:54:30;101511.09;;;8.46;89.86
67109;BME280;54027;50.786;7.058;2023-03-20T04:56:55;101505.03;;;8.41;89.34
67109;BME280;54027;50.786;7.058;2023-03-20T04:59:20;101494.59;;;8.34;89.98
67109;BME280;54027;50.786;7.058;2023-03-20T05:01:46;101490.28;;;8.30;89.77
67109;BME280;54027;50.786;7.058;2023-03-20T05:04:11;101495.34;;;8.25;90.40
67109;BME280;54027;50.786;7.058;2023-03-20T05:06:37;101493.56;;;8.20;90.33
67109;BME280;54027;50.786;7.058;2023-03-20T05:09:02;101493.56;;;8.18;90.65
67109;BME280;54027;50.786;7.058;2023-03-20T05:11:28;101492.69;;;8.18;90.56
67109;BME280;54027;50.786;7.058;2023-03-20T05:13:54;101496.13;;;8.17;90.78
67109;BME280;54027;50.786;7.058;2023-03-20T05:16:19;101497.81;;;8.15;91.03
67109;BME280;54027;50.786;7.058;2023-03-20T05:18:45;101497.78;;;8.13;90.75
67109;BME280;54027;50.786;7.058;2023-03-20T05:21:10;101493.47;;;8.11;91.14
67109;BME280;54027;50.786;7.058;2023-03-20T05:23:37;101485.72;;;8.09;91.25
67109;BME280;54027;50.786;7.058;2023-03-20T05:26:03;101482.25;;;8.07;91.23
67109;BME280;54027;50.786;7.058;2023-03-20T05:28:29;101485.66;;;8.03;91.35
67109;BME280;54027;50.786;7.058;2023-03-20T05:30:55;101488.19;;;8.00;91.70
67109;BME280;54027;50.786;7.058;2023-03-20T05:33:20;101482.13;;;7.96;92.15
67109;BME280;54027;50.786;7.058;2023-03-20T05:35:46;101482.94;;;7.94;91.92
67109;BME280;54027;50.786;7.058;2023-03-20T05:38:11;101482.03;;;7.89;91.94
67109;BME280;54027;50.786;7.058;2023-03-20T05:40:37;101488.78;;;7.82;92.53
67109;BME280;54027;50.786;7.058;2023-03-20T05:43:02;101483.56;;;7.78;92.52
67109;BME280;54027;50.786;7.058;2023-03-20T05:45:28;101480.09;;;7.76;93.36
67109;BME280;54027;50.786;7.058;2023-03-20T05:47:53;101483.47;;;7.72;93.15
67109;BME280;54027;50.786;7.058;2023-03-20T05:50:19;101488.59;;;7.70;93.17
67109;BME280;54027;50.786;7.058;2023-03-20T05:52:48;101483.47;;;7.70;93.17
67109;BME280;54027;50.786;7.058;2023-03-20T05:55:14;101483.47;;;7.72;93.36
67109;BME280;54027;50.786;7.058;2023-03-20T05:57:39;101499.81;;;7.75;93.58
67109;BME280;54027;50.786;7.058;2023-03-20T06:00:05;101497.28;;;7.78;92.97
67109;BME280;54027;50.786;7.058;2023-03-20T06:02:32;101495.66;;;7.83;93.37
67109;BME280;54027;50.786;7.058;2023-03-20T06:04:58;101503.44;;;7.88;93.20
67109;BME280;54027;50.786;7.058;2023-03-20T06:07:23;101510.38;;;7.92;93.08
67109;BME280;54027;50.786;7.058;2023-03-20T06:09:48;101507.91;;;7.98;92.69
67109;BME280;54027;50.786;7.058;2023-03-20T06:12:14;101509.66;;;8.02;92.90
67109;BME280;54027;50.786;7.058;2023-03-20T06:14:40;101511.44;;;8.06;92.79
67109;BME280;54027;50.786;7.058;2023-03-20T06:17:05;101511.47;;;8.11;92.10
67109;BME280;54027;50.786;7.058;2023-03-20T06:19:31;101509.81;;;8.13;92.46
67109;BME280;54027;50.786;7.058;2023-03-20T06:21:56;101511.53;;;8.14;91.65
67109;BME280;54027;50.786;7.058;2023-03-20T06:24:22;101517.53;;;8.14;92.19
67109;BME280;54027;50.786;7.058;2023-03-20T06:26:47;101507.31;;;8.19;91.48
67109;BME280;54027;50.786;7.058;2023-03-20T06:29:13;101514.22;;;8.23;91.92
67109;BME280;54027;50.786;7.058;2023-03-20T06:31:38;101514.28;;;8.29;91.80
67109;BME280;54027;50.786;7.058;2023-03-20T06:34:04;101506.69;;;8.36;91.25
67109;BME280;54027;50.786;7.058;2023-03-20T06:36:29;101503.34;;;8.46;90.77
67109;BME280;54027;50.786;7.058;2023-03-20T06:38:56;101496.56;;;8.53;90.07
67109;BME280;54027;50.786;7.058;2023-03-20T06:41:21;101502.66;;;8.60;90.24
67109;BME280;54027;50.786;7.058;2023-03-20T06:43:46;101500.16;;;8.67;89.45
67109;BME280;54027;50.786;7.058;2023-03-20T06:46:12;101510.56;;;8.76;88.70
67109;BME280;54027;50.786;7.058;2023-03-20T06:48:37;101513.28;;;8.87;88.39
67109;BME280;54027;50.786;7.058;2023-03-20T06:51:03;101515.09;;;8.97;87.68
67109;BME280;54027;50.786;7.058;2023-03-20T06:53:28;101514.31;;;9.05;86.26
67109;BME280;54027;50.786;7.058;2023-03-20T06:55:54;101515.28;;;9.18;87.15
67109;BME280;54027;50.786;7.058;2023-03-20T06:58:19;101511.09;;;9.29;86.15
67109;BME280;54027;50.786;7.058;2023-03-20T07:00:45;101508.59;;;9.37;86.11
67109;BME280;54027;50.786;7.058;2023-03-20T07:03:10;101505.16;;;9.41;85.97
67109;BME280;54027;50.786;7.058;2023-03-20T07:05:37;101510.31;;;9.41;85.16
67109;BME280;54027;50.786;7.058;2023-03-20T07:08:04;101507.69;;;9.35;84.22
67109;BME280;54027;50.786;7.058;2023-03-20T07:10:30;101516.31;;;9.37;84.87
67109;BME280;54027;50.786;7.058;2023-03-20T07:12:56;101515.47;;;9.36;84.59
67109;BME280;54027;50.786;7.058;2023-03-20T07:15:21;101516.34;;;9.40;83.89
67109;BME280;54027;50.786;7.058;2023-03-20T07:17:47;101525.84;;;9.45;84.11
67109;BME280;54027;50.786;7.058;2023-03-20T07:20:13;101526.72;;;9.47;83.26
67109;BME280;54027;50.786;7.058;2023-03-20T07:22:38;101528.47;;;9.53;82.63
67109;BME280;54027;50.786;7.058;2023-03-20T07:25:06;101532.09;;;9.67;82.03
67109;BME280;54027;50.786;7.058;2023-03-20T07:27:32;101539.94;;;9.79;80.73
67109;BME280;54027;50.786;7.058;2023-03-20T07:29:57;101534.81;;;9.87;79.26
67109;BME280;54027;50.786;7.058;2023-03-20T07:32:23;101539.22;;;10.00;78.87
67109;BME280;54027;50.786;7.058;2023-03-20T07:34:48;101550.47;;;10.12;79.02
67109;BME280;54027;50.786;7.058;2023-03-20T07:37:14;101542.72;;;10.15;77.86
67109;BME280;54027;50.786;7.058;2023-03-20T07:39:40;101541.91;;;10.24;77.16
67109;BME280;54027;50.786;7.058;2023-03-20T07:42:05;101559.16;;;10.25;78.20
67109;BME280;54027;50.786;7.058;2023-03-20T07:44:31;101548.88;;;10.34;77.25
67109;BME280;54027;50.786;7.058;2023-03-20T07:46:56;101551.44;;;10.30;76.09
67109;BME280;54027;50.786;7.058;2023-03-20T07:49:22;101549.66;;;10.22;75.43
67109;BME280;54027;50.786;7.058;2023-03-20T07:51:48;101560.81;;;10.18;76.99
67109;BME280;54027;50.786;7.058;2023-03-20T07:54:14;101561.69;;;10.19;76.37
67109;BME280;54027;50.786;7.058;2023-03-20T07:56:40;101556.56;;;10.20;76.03
67109;BME280;54027;50.786;7.058;2023-03-20T07:59:06;101552.25;;;10.24;76.33
67109;BME280;54027;50.786;7.058;2023-03-20T08:01:31;101555.69;;;10.21;75.79
67109;BME280;54027;50.786;7.058;2023-03-20T08:03:57;101546.19;;;10.19;75.08
67109;BME280;54027;50.786;7.058;2023-03-20T08:06:22;101561.69;;;10.16;75.53
67109;BME280;54027;50.786;7.058;2023-03-20T08:08:48;101559.13;;;10.17;74.82
67109;BME280;54027;50.786;7.058;2023-03-20T08:11:16;101559.94;;;10.13;74.68
67109;BME280;54027;50.786;7.058;2023-03-20T08:13:41;101576.31;;;10.18;75.07
67109;BME280;54027;50.786;7.058;2023-03-20T08:16:07;101567.75;;;10.22;74.90
67109;BME280;54027;50.786;7.058;2023-03-20T08:18:33;101590.19;;;10.36;75.42
67109;BME280;54027;50.786;7.058;2023-03-20T08:20:58;101569.56;;;10.45;74.72
67109;BME280;54027;50.786;7.058;2023-03-20T08:23:23;101572.19;;;10.49;74.61
67109;BME280;54027;50.786;7.058;2023-03-20T08:25:50;101573.97;;;10.58;74.44
67109;BME280;54027;50.786;7.058;2023-03-20T08:28:17;101567.09;;;10.66;73.69
67109;BME280;54027;50.786;7.058;2023-03-20T08:30:43;101573.19;;;10.77;74.17
67109;BME280;54027;50.786;7.058;2023-03-20T08:33:09;101567.19;;;10.87;73.36
67109;BME280;54027;50.786;7.058;2023-03-20T08:35:34;101566.28;;;10.77;73.01
67109;BME280;54027;50.786;7.058;2023-03-20T08:38:00;101555.94;;;10.77;71.84
67109;BME280;54027;50.786;7.058;2023-03-20T08:40:26;101564.59;;;10.86;71.73
67109;BME280;54027;50.786;7.058;2023-03-20T08:42:52;101559.41;;;10.87;72.04
67109;BME280;54027;50.786;7.058;2023-03-20T08:45:17;101557.72;;;11.00;71.85
67109;BME280;54027;50.786;7.058;2023-03-20T08:47:42;101502.53;;;10.92;69.12
67109;BME280;54027;50.786;7.058;2023-03-20T08:50:12;101523.22;;;10.96;69.33
67109;BME280;54027;50.786;7.058;2023-03-20T08:52:37;101516.34;;;11.01;68.97
67109;BME280;54027;50.786;7.058;2023-03-20T08:55:11;101487.03;;;11.13;68.17
67109;BME280;54027;50.786;7.058;2023-03-20T08:57:36;101474.09;;;11.25;67.55
67109;BME280;54027;50.786;7.058;2023-03-20T09:00:04;101496.53;;;11.41;68.04
67109;BME280;54027;50.786;7.058;2023-03-20T09:02:30;101467.25;;;11.57;66.92
67109;BME280;54027;50.786;7.058;2023-03-20T09:04:56;101456.88;;;11.63;66.54
67109;BME280;54027;50.786;7.058;2023-03-20T09:07:21;101447.34;;;11.70;65.08
67109;BME280;54027;50.786;7.058;2023-03-20T09:09:46;101429.22;;;11.67;64.09
67109;BME280;54027;50.786;7.058;2023-03-20T09:12:12;101428.38;;;11.59;63.71
67109;BME280;54027;50.786;7.058;2023-03-20T09:14:37;101418.06;;;11.48;63.22
67109;BME280;54027;50.786;7.058;2023-03-20T09:17:03;101436.16;;;11.42;63.79
67109;BME280;54027;50.786;7.058;2023-03-20T09:19:28;101438.78;;;11.45;63.70
67109;BME280;54027;50.786;7.058;2023-03-20T09:21:54;101450.81;;;11.63;64.00
67109;BME280;54027;50.786;7.058;2023-03-20T09:24:19;101456.81;;;11.80;64.55
67109;BME280;54027;50.786;7.058;2023-03-20T09:26:44;101425.78;;;11.63;63.19
67109;BME280;54027;50.786;7.058;2023-03-20T09:29:10;101412.00;;;11.60;62.64
67109;BME280;54027;50.786;7.058;2023-03-20T09:31:35;101440.47;;;11.69;63.60
67109;BME280;54027;50.786;7.058;2023-03-20T09:34:01;101443.88;;;11.80;63.42
67109;BME280;54027;50.786;7.058;2023-03-20T09:36:26;101442.06;;;12.00;63.33
67109;BME280;54027;50.786;7.058;2023-03-20T09:38:51;101423.91;;;12.14;62.53
67109;BME280;54027;50.786;7.058;2023-03-20T09:41:20;101410.94;;;12.12;61.38
67109;BME280;54027;50.786;7.058;2023-03-20T09:49:12;101439.47;;;12.06;61.91
67109;BME280;54027;50.786;7.058;2023-03-20T09:51:47;101430.75;;;12.24;62.03
67109;BME280;54027;50.786;7.058;2023-03-20T09:54:23;101418.63;;;12.30;61.20
67109;BME280;54027;50.786;7.058;2023-03-20T09:56:50;101403.03;;;12.35;60.61
67109;BME280;54027;50.786;7.058;2023-03-20T09:59:18;101409.06;;;12.41;61.01
67109;BME280;54027;50.786;7.058;2023-03-20T10:01:52;101383.22;;;12.26;59.73
67109;BME280;54027;50.786;7.058;2023-03-20T10:04:19;101399.69;;;12.22;60.58
67109;BME280;54027;50.786;7.058;2023-03-20T10:06:45;101419.50;;;12.28;61.11
67109;BME280;54027;50.786;7.058;2023-03-20T10:09:19;101399.63;;;12.27;60.43
67109;BME280;54027;50.786;7.058;2023-03-20T10:12:09;101419.50;;;12.29;61.25
67109;BME280;54027;50.786;7.058;2023-03-20T10:20:36;101383.94;;;12.50;59.74
67109;BME280;54027;50.786;7.058;2023-03-20T10:23:05;101395.31;;;12.27;59.90
67109;BME280;54027;50.786;7.058;2023-03-20T10:25:34;101416.94;;;12.22;60.43
67109;BME280;54027;50.786;7.058;2023-03-20T10:28:25;101420.28;;;12.45;60.73
67109;BME280;54027;50.786;7.058;2023-03-20T10:31:21;101372.66;;;12.57;58.87
67109;BME280;54027;50.786;7.058;2023-03-20T10:42:16;101375.16;;;12.70;58.27
67109;BME280;54027;50.786;7.058;2023-03-20T10:47:42;101372.50;;;12.76;58.21
67109;BME280;54027;50.786;7.058;2023-03-20T10:50:15;101382.00;;;12.80;58.60
67109;BME280;54027;50.786;7.058;2023-03-20T10:52:43;101407.06;;;12.84;59.33
67109;BME280;54027;50.786;7.058;2023-03-20T10:55:36;101330.16;;;12.76;56.13
67109;BME280;54027;50.786;7.058;2023-03-20T10:58:17;101346.78;;;12.51;57.14
67109;BME280;54027;50.786;7.058;2023-03-20T11:00:43;101377.94;;;12.46;58.34
67109;BME280;54027;50.786;7.058;2023-03-20T11:03:19;101382.34;;;12.26;58.56
67109;BME280;54027;50.786;7.058;2023-03-20T11:05:48;101394.56;;;12.00;59.31
67109;BME280;54027;50.786;7.058;2023-03-20T11:08:22;101424.88;;;11.87;60.77
67109;BME280;54027;50.786;7.058;2023-03-20T11:10:57;101443.84;;;11.86;61.35
67109;BME280;54027;50.786;7.058;2023-03-20T11:13:40;101436.13;;;11.68;61.32
67109;BME280;54027;50.786;7.058;2023-03-20T11:18:42;101422.34;;;11.52;60.93
67109;BME280;54027;50.786;7.058;2023-03-20T11:21:16;101415.44;;;11.60;60.46
67109;BME280;54027;50.786;7.058;2023-03-20T11:23:42;101419.69;;;11.79;60.77
67109;BME280;54027;50.786;7.058;2023-03-20T11:28:58;101391.94;;;12.13;59.58
67109;BME280;54027;50.786;7.058;2023-03-20T11:31:34;101387.56;;;12.21;59.57
67109;BME280;54027;50.786;7.058;2023-03-20T11:34:21;101350.41;;;12.24;57.85
67109;BME280;54027;50.786;7.058;2023-03-20T11:37:00;101359.88;;;12.31;58.48
67109;BME280;54027;50.786;7.058;2023-03-20T11:39:30;101333.06;;;12.33;57.25
67109;BME280;54027;50.786;7.058;2023-03-20T11:42:01;101324.50;;;12.22;57.06
67109;BME280;54027;50.786;7.058;2023-03-20T11:44:32;101336.63;;;12.14;57.66
67109;BME280;54027;50.786;7.058;2023-03-20T11:47:10;101323.78;;;11.98;57.23
67109;BME280;54027;50.786;7.058;2023-03-20T11:49:47;101331.66;;;11.81;57.66
67109;BME280;54027;50.786;7.058;2023-03-20T11:52:22;101355.00;;;11.72;58.97
67109;BME280;54027;50.786;7.058;2023-03-20T11:54:51;101383.44;;;11.79;59.87
67109;BME280;54027;50.786;7.058;2023-03-20T11:57:39;101374.75;;;11.88;59.26
67109;BME280;54027;50.786;7.058;2023-03-20T12:00:23;101380.75;;;12.07;60.01
67109;BME280;54027;50.786;7.058;2023-03-20T12:02:49;101310.72;;;12.11;56.30
67109;BME280;54027;50.786;7.058;2023-03-20T12:07:59;101280.25;;;12.46;55.21
67109;BME280;54027;50.786;7.058;2023-03-20T12:10:31;101278.44;;;12.58;55.44
67109;BME280;54027;50.786;7.058;2023-03-20T12:13:01;101239.53;;;12.58;53.46
67109;BME280;54027;50.786;7.058;2023-03-20T12:15:33;101257.50;;;12.77;54.61
67109;BME280;54027;50.786;7.058;2023-03-20T12:18:28;101207.41;;;12.72;51.59
67109;BME280;54027;50.786;7.058;2023-03-20T12:23:50;101220.34;;;12.75;52.47
67109;BME280;54027;50.786;7.058;2023-03-20T12:26:21;101198.81;;;12.69;51.53
67109;BME280;54027;50.786;7.058;2023-03-20T12:29:04;101208.47;;;12.53;51.67
67109;BME280;54027;50.786;7.058;2023-03-20T12:31:52;101239.72;;;12.35;52.46
67109;BME280;54027;50.786;7.058;2023-03-20T12:34:24;101217.31;;;12.31;52.13
67109;BME280;54027;50.786;7.058;2023-03-20T12:36:53;101221.63;;;12.29;52.45
67109;BME280;54027;50.786;7.058;2023-03-20T12:39:26;101243.09;;;12.48;53.66
67109;BME280;54027;50.786;7.058;2023-03-20T12:44:35;101210.06;;;12.65;51.99
67109;BME280;54027;50.786;7.058;2023-03-20T12:58:09;101306.97;;;12.56;56.91
67109;BME280;54027;50.786;7.058;2023-03-20T13:00:47;101308.56;;;12.72;57.14
67109;BME280;54027;50.786;7.058;2023-03-20T13:03:40;101326.72;;;12.72;57.87
67109;BME280;54027;50.786;7.058;2023-03-20T13:14:33;101268.75;;;12.78;55.43
67109;BME280;54027;50.786;7.058;2023-03-20T13:22:16;101265.09;;;12.97;55.55
67109;BME280;54027;50.786;7.058;2023-03-20T13:25:02;101248.69;;;12.96;55.08
67109;BME280;54027;50.786;7.058;2023-03-20T13:27:39;101264.09;;;13.15;55.35
67109;BME280;54027;50.786;7.058;2023-03-20T13:36:01;101252.97;;;13.00;55.31
67109;BME280;54027;50.786;7.058;2023-03-20T13:38:32;101278.19;;;12.88;56.15
67109;BME280;54027;50.786;7.058;2023-03-20T13:41:03;101270.31;;;12.94;56.26
67109;BME280;54027;50.786;7.058;2023-03-20T13:43:33;101259.91;;;12.98;55.51
67109;BME280;54027;50.786;7.058;2023-03-20T13:46:03;101260.59;;;13.17;55.57
67109;BME280;54027;50.786;7.058;2023-03-20T13:48:42;101263.81;;;13.36;55.65
67109;BME280;54027;50.786;7.058;2023-03-20T13:54:17;101229.19;;;13.38;54.27
67109;BME280;54027;50.786;7.058;2023-03-20T13:56:56;101222.78;;;13.64;54.31
67109;BME280;54027;50.786;7.058;2023-03-20T14:02:15;101193.47;;;13.55;53.74
67109;BME280;54027;50.786;7.058;2023-03-20T14:04:48;101214.88;;;13.73;54.39
67109;BME280;54027;50.786;7.058;2023-03-20T14:07:31;101221.75;;;13.75;54.58
67109;BME280;54027;50.786;7.058;2023-03-20T14:12:53;101205.25;;;13.78;53.92
67109;BME280;54027;50.786;7.058;2023-03-20T14:15:20;101206.03;;;13.86;54.28
67109;BME280;54027;50.786;7.058;2023-03-20T14:17:47;101185.97;;;13.94;53.43
67109;BME280;54027;50.786;7.058;2023-03-20T14:20:38;101194.25;;;14.17;53.79
67109;BME280;54027;50.786;7.058;2023-03-20T14:23:05;101165.72;;;14.16;52.06
67109;BME280;54027;50.786;7.058;2023-03-20T14:25:35;101184.81;;;14.11;53.58
67109;BME280;54027;50.786;7.058;2023-03-20T14:28:24;101184.00;;;14.08;52.28
67109;BME280;54027;50.786;7.058;2023-03-20T14:30:49;101214.47;;;14.00;54.00
67109;BME280;54027;50.786;7.058;2023-03-20T14:41:15;101202.75;;;13.73;53.41
67109;BME280;54027;50.786;7.058;2023-03-20T14:49:22;101199.28;;;13.09;53.89
67109;BME280;54027;50.786;7.058;2023-03-20T14:51:50;101224.31;;;13.10;54.71
67109;BME280;54027;50.786;7.058;2023-03-20T14:56:50;101245.09;;;13.11;55.72
67109;BME280;54027;50.786;7.058;2023-03-20T14:59:20;101206.25;;;12.99;55.11
67109;BME280;54027;50.786;7.058;2023-03-20T15:01:59;101240.81;;;13.07;56.21
67109;BME280;54027;50.786;7.058;2023-03-20T15:04:35;101225.22;;;13.07;55.79
67109;BME280;54027;50.786;7.058;2023-03-20T15:07:09;101212.31;;;13.03;55.06
67109;BME280;54027;50.786;7.058;2023-03-20T15:09:36;101232.16;;;13.07;56.77
67109;BME280;54027;50.786;7.058;2023-03-20T15:12:05;101237.31;;;13.10;56.36
67109;BME280;54027;50.786;7.058;2023-03-20T15:14:36;101239.91;;;13.11;57.22
67109;BME280;54027;50.786;7.058;2023-03-20T15:17:05;101245.16;;;13.05;57.64
67109;BME280;54027;50.786;7.058;2023-03-20T15:19:31;101252.78;;;13.19;57.79